sensor_id;sensor_type;location;lat;lon;timestamp;temperature;humidity
22185;DHT22;11258;52.516;13.318;2023-03-19T00:01:57;12.20;99.90
22185;DHT22;11258;52.516;13.318;2023-03-19T00:04:24;12.10;99.90
22185;DHT22;11258;52.516;13.318;2023-03-19T00:06:50;12.10;99.90
22185;DHT22;11258;52.516;13.318;2023-03-19T00:09:17;12.10;99.90
22185;DHT22;11258;52.516;13.318;2023-03-19T00:11:43;12.20;99.90
22185;DHT22;11258;52.516;13.318;2023-03-19T00:14:08;12.20;99.90
22185;DHT22;11258;52.516;13.318;2023-03-19T00:16:34;12.10;99.90
22185;DHT22;11258;52.516;13.318;2023-03-19T00:19:01;12.00;99.90
22185;DHT22;11258;52.516;13.318;2023-03-19T00:21:28;11.90;99.90
22185;DHT22;11258;52.516;13.318;2023-03-19T00:23:54;11.90;99.90
22185;DHT22;11258;52.516;13.318;2023-03-19T00:26:26;11.90;99.90
22185;DHT22;11258;52.516;13.318;2023-03-19T00:28:51;11.80;99.90
22185;DHT22;11258;52.516;13.318;2023-03-19T00:31:17;11.80;99.90
22185;DHT22;11258;52.516;13.318;2023-03-19T00:33:42;11.80;99.90
22185;DHT22;11258;52.516;13.318;2023-03-19T00:36:09;11.70;99.90
22185;DHT22;11258;52.516;13.318;2023-03-19T00:38:36;11.70;99.90
22185;DHT22;11258;52.516;13.318;2023-03-19T00:41:03;11.70;99.90
22185;DHT22;11258;52.516;13.318;2023-03-19T00:43:29;11.70;99.90
22185;DHT22;11258;52.516;13.318;2023-03-19T00:45:55;11.70;99.90
22185;DHT22;11258;52.516;13.318;2023-03-19T00:48:21;11.70;99.90
22185;DHT22;11258;52.516;13.318;2023-03-19T00:50:47;11.60;99.90
22185;DHT22;11258;52.516;13.318;2023-03-19T00:53:13;11.60;99.90
22185;DHT22;11258;52.516;13.318;2023-03-19T00:55:39;11.60;99.90
22185;DHT22;11258;52.516;13.318;2023-03-19T00:58:05;11.50;99.90
22185;DHT22;11258;52.516;13.318;2023-03-19T01:00:32;11.40;99.90
22185;DHT22;11258;52.516;13.318;2023-03-19T01:02:58;11.50;99.90
22185;DHT22;11258;52.516;13.318;2023-03-19T01:05:24;11.40;99.90
22185;DHT22;11258;52.516;13.318;2023-03-19T01:07:50;11.40;99.90
22185;DHT22;11258;52.516;13.318;2023-03-19T01:10:18;11.50;99.90
22185;DHT22;11258;52.516;13.318;2023-03-19T01:12:43;11.50;99.90
22185;DHT22;11258;52.516;13.318;2023-03-19T01:15:09;11.30;99.90
22185;DHT22;11258;52.516;13.318;2023-03-19T01:17:35;11.20;99.90
22185;DHT22;11258;52.516;13.318;2023-03-19T01:20:01;11.20;99.90
22185;DHT22;11258;52.516;13.318;2023-03-19T01:22:27;11.20;99.90
22185;DHT22;11258;52.516;13.318;2023-03-19T01:24:53;11.10;99.90
22185;DHT22;11258;52.516;13.318;2023-03-19T01:27:19;11.10;99.90
22185;DHT22;11258;52.516;13.318;2023-03-19T01:29:45;11.10;99.90
22185;DHT22;11258;52.516;13.318;2023-03-19T01:32:11;11.00;99.90
22185;DHT22;11258;52.516;13.318;2023-03-19T01:34:37;11.00;99.90
22185;DHT22;11258;52.516;13.318;2023-03-19T01:37:02;11.00;99.90
22185;DHT22;11258;52.516;13.318;2023-03-19T01:39:28;11.00;99.90
22185;DHT22;11258;52.516;13.318;2023-03-19T01:41:53;11.00;99.90
22185;DHT22;11258;52.516;13.318;2023-03-19T01:44:33;10.90;99.90
22185;DHT22;11258;52.516;13.318;2023-03-19T01:47:02;10.90;99.90
22185;DHT22;11258;52.516;13.318;2023-03-19T01:49:29;11.00;99.90
22185;DHT22;11258;52.516;13.318;2023-03-19T01:51:57;10.90;99.90
22185;DHT22;11258;52.516;13.318;2023-03-19T01:54:24;10.90;99.90
22185;DHT22;11258;52.516;13.318;2023-03-19T01:56:55;11.00;99.90
22185;DHT22;11258;52.516;13.318;2023-03-19T01:59:27;11.00;99.90
22185;DHT22;11258;52.516;13.318;2023-03-19T02:01:57;11.00;99.90
22185;DHT22;11258;52.516;13.318;2023-03-19T02:04:26;11.00;99.90
22185;DHT22;11258;52.516;13.318;2023-03-19T02:06:54;11.10;99.90
22185;DHT22;11258;52.516;13.318;2023-03-19T02:09:20;11.20;99.90
22185;DHT22;11258;52.516;13.318;2023-03-19T02:11:46;11.10;99.90
22185;DHT22;11258;52.516;13.318;2023-03-19T02:14:12;11.10;99.90
22185;DHT22;11258;52.516;13.318;2023-03-19T02:16:38;11.10;99.90
22185;DHT22;11258;52.516;13.318;2023-03-19T02:19:09;10.90;99.90
22185;DHT22;11258;52.516;13.318;2023-03-19T02:21:37;10.90;99.90
22185;DHT22;11258;52.516;13.318;2023-03-19T02:24:12;10.80;99.90
22185;DHT22;11258;52.516;13.318;2023-03-19T02:26:40;10.80;99.90
22185;DHT22;11258;52.516;13.318;2023-03-19T02:29:06;10.80;99.90
22185;DHT22;11258;52.516;13.318;2023-03-19T02:31:32;10.70;99.90
22185;DHT22;11258;52.516;13.318;2023-03-19T02:34:01;10.70;99.90
22185;DHT22;11258;52.516;13.318;2023-03-19T02:36:40;10.80;99.90
22185;DHT22;11258;52.516;13.318;2023-03-19T02:39:15;10.70;99.90
22185;DHT22;11258;52.516;13.318;2023-03-19T02:41:43;10.60;99.90
22185;DHT22;11258;52.516;13.318;2023-03-19T02:44:11;10.60;99.90
22185;DHT22;11258;52.516;13.318;2023-03-19T02:46:37;10.70;99.90
22185;DHT22;11258;52.516;13.318;2023-03-19T02:49:02;10.60;99.90
22185;DHT22;11258;52.516;13.318;2023-03-19T02:51:28;10.60;99.90
22185;DHT22;11258;52.516;13.318;2023-03-19T02:53:54;10.60;99.90
22185;DHT22;11258;52.516;13.318;2023-03-19T02:56:20;10.60;99.90
22185;DHT22;11258;52.516;13.318;2023-03-19T02:58:45;10.60;99.90
22185;DHT22;11258;52.516;13.318;2023-03-19T03:01:11;10.60;99.90
22185;DHT22;11258;52.516;13.318;2023-03-19T03:03:37;10.50;99.90
22185;DHT22;11258;52.516;13.318;2023-03-19T03:06:02;10.60;99.90
22185;DHT22;11258;52.516;13.318;2023-03-19T03:08:28;10.60;99.90
22185;DHT22;11258;52.516;13.318;2023-03-19T03:10:53;10.60;99.90
22185;DHT22;11258;52.516;13.318;2023-03-19T03:13:19;10.50;99.90
22185;DHT22;11258;52.516;13.318;2023-03-19T03:15:46;10.50;99.90
22185;DHT22;11258;52.516;13.318;2023-03-19T03:18:11;10.60;99.90
22185;DHT22;11258;52.516;13.318;2023-03-19T03:20:37;10.70;99.90
22185;DHT22;11258;52.516;13.318;2023-03-19T03:23:03;10.60;99.90
22185;DHT22;11258;52.516;13.318;2023-03-19T03:25:28;10.60;99.90
22185;DHT22;11258;52.516;13.318;2023-03-19T03:27:55;10.50;99.90
22185;DHT22;11258;52.516;13.318;2023-03-19T03:30:20;10.50;99.90
22185;DHT22;11258;52.516;13.318;2023-03-19T03:32:46;10.60;99.90
22185;DHT22;11258;52.516;13.318;2023-03-19T03:35:12;10.70;99.90
22185;DHT22;11258;52.516;13.318;2023-03-19T03:37:38;10.80;99.90
22185;DHT22;11258;52.516;13.318;2023-03-19T03:40:05;10.90;99.90
22185;DHT22;11258;52.516;13.318;2023-03-19T03:42:33;10.90;99.90
22185;DHT22;11258;52.516;13.318;2023-03-19T03:45:00;10.90;99.90
22185;DHT22;11258;52.516;13.318;2023-03-19T03:47:26;10.80;99.90
22185;DHT22;11258;52.516;13.318;2023-03-19T03:49:52;10.80;99.90
22185;DHT22;11258;52.516;13.318;2023-03-19T03:52:17;10.80;99.90
22185;DHT22;11258;52.516;13.318;2023-03-19T03:54:43;10.80;99.90
22185;DHT22;11258;52.516;13.318;2023-03-19T03:57:08;10.70;99.90
22185;DHT22;11258;52.516;13.318;2023-03-19T03:59:34;10.70;99.90
22185;DHT22;11258;52.516;13.318;2023-03-19T04:02:00;10.70;99.90
22185;DHT22;11258;52.516;13.318;2023-03-19T04:04:26;10.70;99.90
22185;DHT22;11258;52.516;13.318;2023-03-19T04:06:51;10.70;99.90
22185;DHT22;11258;52.516;13.318;2023-03-19T04:09:17;10.70;99.90
22185;DHT22;11258;52.516;13.318;2023-03-19T04:11:44;10.80;99.90
22185;DHT22;11258;52.516;13.318;2023-03-19T04:14:09;10.80;99.90
22185;DHT22;11258;52.516;13.318;2023-03-19T04:16:35;10.80;99.90
22185;DHT22;11258;52.516;13.318;2023-03-19T04:19:01;10.80;99.90
22185;DHT22;11258;52.516;13.318;2023-03-19T04:21:26;10.80;99.90
22185;DHT22;11258;52.516;13.318;2023-03-19T04:23:53;10.70;99.90
22185;DHT22;11258;52.516;13.318;2023-03-19T04:26:18;10.70;99.90
22185;DHT22;11258;52.516;13.318;2023-03-19T04:28:44;10.70;99.90
22185;DHT22;11258;52.516;13.318;2023-03-19T04:31:10;10.70;99.90
22185;DHT22;11258;52.516;13.318;2023-03-19T04:33:35;10.70;99.90
22185;DHT22;11258;52.516;13.318;2023-03-19T04:36:02;10.70;99.90
22185;DHT22;11258;52.516;13.318;2023-03-19T04:38:28;10.70;99.90
22185;DHT22;11258;52.516;13.318;2023-03-19T04:40:56;10.70;99.90
22185;DHT22;11258;52.516;13.318;2023-03-19T04:43:22;10.70;99.90
22185;DHT22;11258;52.516;13.318;2023-03-19T04:45:48;10.60;99.90
22185;DHT22;11258;52.516;13.318;2023-03-19T04:48:14;10.60;99.90
22185;DHT22;11258;52.516;13.318;2023-03-19T04:50:40;10.70;99.90
22185;DHT22;11258;52.516;13.318;2023-03-19T04:53:06;10.70;99.90
22185;DHT22;11258;52.516;13.318;2023-03-19T04:55:32;10.60;99.90
22185;DHT22;11258;52.516;13.318;2023-03-19T04:57:58;10.60;99.90
22185;DHT22;11258;52.516;13.318;2023-03-19T05:00:24;10.70;99.90
22185;DHT22;11258;52.516;13.318;2023-03-19T05:02:50;10.60;99.90
22185;DHT22;11258;52.516;13.318;2023-03-19T05:05:16;10.70;99.90
22185;DHT22;11258;52.516;13.318;2023-03-19T05:07:42;10.80;99.90
22185;DHT22;11258;52.516;13.318;2023-03-19T05:10:09;10.80;99.90
22185;DHT22;11258;52.516;13.318;2023-03-19T05:12:35;10.90;99.90
22185;DHT22;11258;52.516;13.318;2023-03-19T05:15:01;10.90;99.90
22185;DHT22;11258;52.516;13.318;2023-03-19T05:17:27;10.80;99.90
22185;DHT22;11258;52.516;13.318;2023-03-19T05:19:53;10.80;99.90
22185;DHT22;11258;52.516;13.318;2023-03-19T05:22:19;10.70;99.90
22185;DHT22;11258;52.516;13.318;2023-03-19T05:24:45;10.70;99.90
22185;DHT22;11258;52.516;13.318;2023-03-19T05:27:11;10.70;99.90
22185;DHT22;11258;52.516;13.318;2023-03-19T05:29:36;10.70;99.90
22185;DHT22;11258;52.516;13.318;2023-03-19T05:32:02;10.70;99.90
22185;DHT22;11258;52.516;13.318;2023-03-19T05:34:28;10.70;99.90
22185;DHT22;11258;52.516;13.318;2023-03-19T05:36:54;10.60;99.90
22185;DHT22;11258;52.516;13.318;2023-03-19T05:39:20;10.60;99.90
22185;DHT22;11258;52.516;13.318;2023-03-19T05:41:46;10.50;99.90
22185;DHT22;11258;52.516;13.318;2023-03-19T05:44:11;10.60;99.90
22185;DHT22;11258;52.516;13.318;2023-03-19T05:46:37;10.50;99.90
22185;DHT22;11258;52.516;13.318;2023-03-19T05:49:03;10.50;99.90
22185;DHT22;11258;52.516;13.318;2023-03-19T05:51:29;10.60;99.90
22185;DHT22;11258;52.516;13.318;2023-03-19T05:53:55;10.60;99.90
22185;DHT22;11258;52.516;13.318;2023-03-19T05:56:20;10.60;99.90
22185;DHT22;11258;52.516;13.318;2023-03-19T05:58:46;10.70;99.90
22185;DHT22;11258;52.516;13.318;2023-03-19T06:01:12;10.80;99.90
22185;DHT22;11258;52.516;13.318;2023-03-19T06:03:37;10.70;99.90
22185;DHT22;11258;52.516;13.318;2023-03-19T06:06:03;10.80;99.90
22185;DHT22;11258;52.516;13.318;2023-03-19T06:08:29;10.90;99.90
22185;DHT22;11258;52.516;13.318;2023-03-19T06:10:55;11.20;99.90
22185;DHT22;11258;52.516;13.318;2023-03-19T06:13:20;11.70;99.90
22185;DHT22;11258;52.516;13.318;2023-03-19T06:15:47;12.00;99.90
22185;DHT22;11258;52.516;13.318;2023-03-19T06:18:14;12.60;99.90
22185;DHT22;11258;52.516;13.318;2023-03-19T06:20:40;13.30;99.90
22185;DHT22;11258;52.516;13.318;2023-03-19T06:23:06;13.60;99.90
22185;DHT22;11258;52.516;13.318;2023-03-19T06:25:32;13.90;99.90
22185;DHT22;11258;52.516;13.318;2023-03-19T06:27:58;14.60;99.90
22185;DHT22;11258;52.516;13.318;2023-03-19T06:30:24;15.30;99.90
22185;DHT22;11258;52.516;13.318;2023-03-19T06:32:50;16.10;99.90
22185;DHT22;11258;52.516;13.318;2023-03-19T06:35:16;16.80;99.90
22185;DHT22;11258;52.516;13.318;2023-03-19T06:37:42;16.10;99.90
22185;DHT22;11258;52.516;13.318;2023-03-19T06:40:08;15.00;99.90
22185;DHT22;11258;52.516;13.318;2023-03-19T06:42:34;14.60;99.90
22185;DHT22;11258;52.516;13.318;2023-03-19T06:45:00;14.30;99.90
22185;DHT22;11258;52.516;13.318;2023-03-19T06:47:25;14.10;99.90
22185;DHT22;11258;52.516;13.318;2023-03-19T06:49:51;13.80;99.90
22185;DHT22;11258;52.516;13.318;2023-03-19T06:52:17;13.60;99.90
22185;DHT22;11258;52.516;13.318;2023-03-19T06:54:42;13.40;99.90
22185;DHT22;11258;52.516;13.318;2023-03-19T06:57:08;13.10;99.90
22185;DHT22;11258;52.516;13.318;2023-03-19T06:59:34;12.90;99.90
22185;DHT22;11258;52.516;13.318;2023-03-19T07:01:59;12.40;99.90
22185;DHT22;11258;52.516;13.318;2023-03-19T07:04:25;12.10;99.90
22185;DHT22;11258;52.516;13.318;2023-03-19T07:06:51;11.80;99.90
22185;DHT22;11258;52.516;13.318;2023-03-19T07:09:16;11.40;99.90
22185;DHT22;11258;52.516;13.318;2023-03-19T07:11:42;11.20;99.90
22185;DHT22;11258;52.516;13.318;2023-03-19T07:14:08;11.10;99.90
22185;DHT22;11258;52.516;13.318;2023-03-19T07:16:34;11.10;99.90
22185;DHT22;11258;52.516;13.318;2023-03-19T07:18:59;11.00;99.90
22185;DHT22;11258;52.516;13.318;2023-03-19T07:21:25;11.00;99.90
22185;DHT22;11258;52.516;13.318;2023-03-19T07:23:51;10.90;99.90
22185;DHT22;11258;52.516;13.318;2023-03-19T07:26:17;10.90;99.90
22185;DHT22;11258;52.516;13.318;2023-03-19T07:28:43;10.80;99.90
22185;DHT22;11258;52.516;13.318;2023-03-19T07:31:09;10.60;99.90
22185;DHT22;11258;52.516;13.318;2023-03-19T07:33:35;10.50;99.90
22185;DHT22;11258;52.516;13.318;2023-03-19T07:36:00;10.30;99.90
22185;DHT22;11258;52.516;13.318;2023-03-19T07:38:26;10.00;99.90
22185;DHT22;11258;52.516;13.318;2023-03-19T07:40:52;10.00;99.90
22185;DHT22;11258;52.516;13.318;2023-03-19T07:43:17;10.10;99.90
22185;DHT22;11258;52.516;13.318;2023-03-19T07:45:43;10.20;99.90
22185;DHT22;11258;52.516;13.318;2023-03-19T07:48:08;10.20;99.90
22185;DHT22;11258;52.516;13.318;2023-03-19T07:50:35;10.10;99.90
22185;DHT22;11258;52.516;13.318;2023-03-19T07:53:01;10.20;99.90
22185;DHT22;11258;52.516;13.318;2023-03-19T07:55:26;10.30;99.90
22185;DHT22;11258;52.516;13.318;2023-03-19T07:57:52;10.10;99.90
22185;DHT22;11258;52.516;13.318;2023-03-19T08:00:18;10.00;99.90
22185;DHT22;11258;52.516;13.318;2023-03-19T08:02:44;10.00;99.90
22185;DHT22;11258;52.516;13.318;2023-03-19T08:05:10;10.10;99.90
22185;DHT22;11258;52.516;13.318;2023-03-19T08:07:36;10.20;99.90
22185;DHT22;11258;52.516;13.318;2023-03-19T08:10:03;10.20;99.90
22185;DHT22;11258;52.516;13.318;2023-03-19T08:12:29;10.30;99.90
22185;DHT22;11258;52.516;13.318;2023-03-19T08:14:56;10.40;99.90
22185;DHT22;11258;52.516;13.318;2023-03-19T08:17:22;10.30;99.90
22185;DHT22;11258;52.516;13.318;2023-03-19T08:19:47;10.50;99.90
22185;DHT22;11258;52.516;13.318;2023-03-19T08:22:13;10.70;99.90
22185;DHT22;11258;52.516;13.318;2023-03-19T08:24:38;10.80;99.90
22185;DHT22;11258;52.516;13.318;2023-03-19T08:27:04;10.90;99.90
22185;DHT22;11258;52.516;13.318;2023-03-19T08:29:31;11.00;99.90
22185;DHT22;11258;52.516;13.318;2023-03-19T08:31:56;11.00;99.90
22185;DHT22;11258;52.516;13.318;2023-03-19T08:34:23;11.00;99.90
22185;DHT22;11258;52.516;13.318;2023-03-19T08:36:49;10.90;99.90
22185;DHT22;11258;52.516;13.318;2023-03-19T08:39:14;10.80;99.90
22185;DHT22;11258;52.516;13.318;2023-03-19T08:41:40;10.60;99.90
22185;DHT22;11258;52.516;13.318;2023-03-19T08:44:06;10.50;99.90
22185;DHT22;11258;52.516;13.318;2023-03-19T08:46:32;10.40;99.90
22185;DHT22;11258;52.516;13.318;2023-03-19T08:48:58;10.20;99.90
22185;DHT22;11258;52.516;13.318;2023-03-19T08:51:24;10.10;99.90
22185;DHT22;11258;52.516;13.318;2023-03-19T08:53:51;10.20;99.90
22185;DHT22;11258;52.516;13.318;2023-03-19T08:56:17;10.20;99.90
22185;DHT22;11258;52.516;13.318;2023-03-19T08:58:43;10.20;99.90
22185;DHT22;11258;52.516;13.318;2023-03-19T09:01:11;10.20;99.90
22185;DHT22;11258;52.516;13.318;2023-03-19T09:03:38;10.10;99.90
22185;DHT22;11258;52.516;13.318;2023-03-19T09:06:05;10.00;99.90
22185;DHT22;11258;52.516;13.318;2023-03-19T09:08:31;10.00;99.90
22185;DHT22;11258;52.516;13.318;2023-03-19T09:10:57;10.00;99.90
22185;DHT22;11258;52.516;13.318;2023-03-19T09:13:24;10.10;99.90
22185;DHT22;11258;52.516;13.318;2023-03-19T09:15:49;10.10;99.90
22185;DHT22;11258;52.516;13.318;2023-03-19T09:18:16;10.20;99.90
22185;DHT22;11258;52.516;13.318;2023-03-19T09:20:42;10.10;99.90
22185;DHT22;11258;52.516;13.318;2023-03-19T09:23:08;10.20;99.90
22185;DHT22;11258;52.516;13.318;2023-03-19T09:25:34;10.30;99.90
22185;DHT22;11258;52.516;13.318;2023-03-19T09:27:59;10.30;99.90
22185;DHT22;11258;52.516;13.318;2023-03-19T09:30:25;10.30;99.90
22185;DHT22;11258;52.516;13.318;2023-03-19T09:32:51;10.40;99.90
22185;DHT22;11258;52.516;13.318;2023-03-19T09:35:17;10.50;99.90
22185;DHT22;11258;52.516;13.318;2023-03-19T09:37:42;10.40;99.90
22185;DHT22;11258;52.516;13.318;2023-03-19T09:40:20;10.50;99.90
22185;DHT22;11258;52.516;13.318;2023-03-19T09:45:33;10.80;99.90
22185;DHT22;11258;52.516;13.318;2023-03-19T09:48:04;11.00;99.90
22185;DHT22;11258;52.516;13.318;2023-03-19T09:50:31;11.10;99.90
22185;DHT22;11258;52.516;13.318;2023-03-19T09:53:29;11.30;99.90
22185;DHT22;11258;52.516;13.318;2023-03-19T09:56:01;11.50;99.90
22185;DHT22;11258;52.516;13.318;2023-03-19T09:58:34;11.60;99.90
22185;DHT22;11258;52.516;13.318;2023-03-19T10:01:01;11.80;99.90
22185;DHT22;11258;52.516;13.318;2023-03-19T10:11:27;12.30;99.90
22185;DHT22;11258;52.516;13.318;2023-03-19T10:14:25;12.40;99.90
22185;DHT22;11258;52.516;13.318;2023-03-19T10:16:55;12.50;99.90
22185;DHT22;11258;52.516;13.318;2023-03-19T10:22:25;12.10;99.90
22185;DHT22;11258;52.516;13.318;2023-03-19T10:24:53;11.90;99.90
22185;DHT22;11258;52.516;13.318;2023-03-19T10:27:24;12.00;99.90
22185;DHT22;11258;52.516;13.318;2023-03-19T10:29:51;12.00;99.90
22185;DHT22;11258;52.516;13.318;2023-03-19T10:34:57;12.40;99.90
22185;DHT22;11258;52.516;13.318;2023-03-19T10:37:29;12.60;99.90
22185;DHT22;11258;52.516;13.318;2023-03-19T10:39:57;12.80;99.90
22185;DHT22;11258;52.516;13.318;2023-03-19T10:45:26;13.00;99.90
22185;DHT22;11258;52.516;13.318;2023-03-19T10:47:53;13.30;99.90
22185;DHT22;11258;52.516;13.318;2023-03-19T10:50:33;13.40;99.90
22185;DHT22;11258;52.516;13.318;2023-03-19T10:55:38;13.60;99.90
22185;DHT22;11258;52.516;13.318;2023-03-19T10:58:21;13.50;99.90
22185;DHT22;11258;52.516;13.318;2023-03-19T11:00:48;13.60;99.90
22185;DHT22;11258;52.516;13.318;2023-03-19T11:03:33;13.60;99.90
22185;DHT22;11258;52.516;13.318;2023-03-19T11:06:04;13.40;99.90
22185;DHT22;11258;52.516;13.318;2023-03-19T11:08:34;13.50;99.90
22185;DHT22;11258;52.516;13.318;2023-03-19T11:11:00;13.60;99.90
22185;DHT22;11258;52.516;13.318;2023-03-19T11:13:26;13.80;99.90
22185;DHT22;11258;52.516;13.318;2023-03-19T11:15:56;13.90;99.90
22185;DHT22;11258;52.516;13.318;2023-03-19T11:18:26;13.80;99.90
22185;DHT22;11258;52.516;13.318;2023-03-19T11:21:04;13.80;99.90
22185;DHT22;11258;52.516;13.318;2023-03-19T11:23:38;13.60;99.90
22185;DHT22;11258;52.516;13.318;2023-03-19T11:26:04;13.70;99.90
22185;DHT22;11258;52.516;13.318;2023-03-19T11:28:30;13.70;99.90
22185;DHT22;11258;52.516;13.318;2023-03-19T11:31:05;13.80;99.90
22185;DHT22;11258;52.516;13.318;2023-03-19T11:33:54;13.70;99.90
22185;DHT22;11258;52.516;13.318;2023-03-19T11:45:00;13.70;99.90
22185;DHT22;11258;52.516;13.318;2023-03-19T11:47:42;13.60;99.90
22185;DHT22;11258;52.516;13.318;2023-03-19T11:50:34;13.60;99.90
22185;DHT22;11258;52.516;13.318;2023-03-19T12:01:22;13.80;99.90
22185;DHT22;11258;52.516;13.318;2023-03-19T12:04:15;13.90;99.90
22185;DHT22;11258;52.516;13.318;2023-03-19T12:06:59;14.00;99.90
22185;DHT22;11258;52.516;13.318;2023-03-19T12:17:45;14.20;99.90
22185;DHT22;11258;52.516;13.318;2023-03-19T12:28:28;14.60;99.90
22185;DHT22;11258;52.516;13.318;2023-03-19T12:33:51;14.70;99.90
22185;DHT22;11258;52.516;13.318;2023-03-19T12:36:24;14.70;99.90
22185;DHT22;11258;52.516;13.318;2023-03-19T12:38:53;14.80;99.90
22185;DHT22;11258;52.516;13.318;2023-03-19T12:41:27;14.90;99.90
22185;DHT22;11258;52.516;13.318;2023-03-19T12:44:09;15.00;99.90
22185;DHT22;11258;52.516;13.318;2023-03-19T12:46:39;15.00;99.90
22185;DHT22;11258;52.516;13.318;2023-03-19T12:49:20;15.10;99.90
22185;DHT22;11258;52.516;13.318;2023-03-19T12:51:54;15.20;99.90
22185;DHT22;11258;52.516;13.318;2023-03-19T12:54:30;15.30;99.90
22185;DHT22;11258;52.516;13.318;2023-03-19T12:57:13;15.20;99.90
22185;DHT22;11258;52.516;13.318;2023-03-19T12:59:42;15.10;99.90
22185;DHT22;11258;52.516;13.318;2023-03-19T13:02:27;15.20;99.90
22185;DHT22;11258;52.516;13.318;2023-03-19T13:04:59;15.40;99.90
22185;DHT22;11258;52.516;13.318;2023-03-19T13:07:57;15.40;99.90
22185;DHT22;11258;52.516;13.318;2023-03-19T13:10:25;15.40;99.90
22185;DHT22;11258;52.516;13.318;2023-03-19T13:12:53;15.50;99.90
22185;DHT22;11258;52.516;13.318;2023-03-19T13:15:34;15.50;99.90
22185;DHT22;11258;52.516;13.318;2023-03-19T13:23:19;15.70;99.90
22185;DHT22;11258;52.516;13.318;2023-03-19T13:25:47;15.70;99.90
22185;DHT22;11258;52.516;13.318;2023-03-19T13:28:30;15.80;99.90
22185;DHT22;11258;52.516;13.318;2023-03-19T13:30:59;15.90;99.90
22185;DHT22;11258;52.516;13.318;2023-03-19T13:33:26;16.00;99.90
22185;DHT22;11258;52.516;13.318;2023-03-19T13:35:54;16.10;99.90
22185;DHT22;11258;52.516;13.318;2023-03-19T13:38:39;15.90;99.90
22185;DHT22;11258;52.516;13.318;2023-03-19T13:43:57;15.80;99.90
22185;DHT22;11258;52.516;13.318;2023-03-19T13:46:34;15.90;99.90
22185;DHT22;11258;52.516;13.318;2023-03-19T13:49:21;15.90;99.90
22185;DHT22;11258;52.516;13.318;2023-03-19T13:51:49;16.00;99.90
22185;DHT22;11258;52.516;13.318;2023-03-19T13:54:18;16.10;99.90
22185;DHT22;11258;52.516;13.318;2023-03-19T13:59:36;16.10;99.90
22185;DHT22;11258;52.516;13.318;2023-03-19T14:04:55;16.20;99.90
22185;DHT22;11258;52.516;13.318;2023-03-19T14:07:24;16.20;99.90
22185;DHT22;11258;52.516;13.318;2023-03-19T14:12:37;16.30;99.90
22185;DHT22;11258;52.516;13.318;2023-03-19T14:25:25;16.30;99.90
22185;DHT22;11258;52.516;13.318;2023-03-19T14:27:58;16.40;99.90
22185;DHT22;11258;52.516;13.318;2023-03-19T14:30:43;16.40;99.90
22185;DHT22;11258;52.516;13.318;2023-03-19T14:33:17;16.50;99.90
22185;DHT22;11258;52.516;13.318;2023-03-19T14:35:45;16.60;99.90
22185;DHT22;11258;52.516;13.318;2023-03-19T14:40:58;16.60;99.90
22185;DHT22;11258;52.516;13.318;2023-03-19T14:46:30;16.70;99.90
22185;DHT22;11258;52.516;13.318;2023-03-19T14:52:13;16.60;99.90
22185;DHT22;11258;52.516;13.318;2023-03-19T14:54:53;16.60;99.90
22185;DHT22;11258;52.516;13.318;2023-03-19T14:57:25;16.50;99.90
22185;DHT22;11258;52.516;13.318;2023-03-19T14:59:51;16.50;99.90
22185;DHT22;11258;52.516;13.318;2023-03-19T15:05:00;16.40;99.90
22185;DHT22;11258;52.516;13.318;2023-03-19T15:07:33;16.40;99.90
22185;DHT22;11258;52.516;13.318;2023-03-19T15:10:04;16.30;99.90
22185;DHT22;11258;52.516;13.318;2023-03-19T15:12:47;16.30;99.90
22185;DHT22;11258;52.516;13.318;2023-03-19T15:18:12;16.30;99.90
22185;DHT22;11258;52.516;13.318;2023-03-19T15:20:45;16.20;99.90
22185;DHT22;11258;52.516;13.318;2023-03-19T15:23:13;16.20;99.90
22185;DHT22;11258;52.516;13.318;2023-03-19T15:25:49;16.20;99.90
22185;DHT22;11258;52.516;13.318;2023-03-19T15:28:16;16.20;99.90
22185;DHT22;11258;52.516;13.318;2023-03-19T15:30:42;16.20;99.90
22185;DHT22;11258;52.516;13.318;2023-03-19T15:33:19;16.20;99.90
22185;DHT22;11258;52.516;13.318;2023-03-19T15:35:56;16.20;99.90
22185;DHT22;11258;52.516;13.318;2023-03-19T15:38:23;16.20;99.90
22185;DHT22;11258;52.516;13.318;2023-03-19T15:40:50;16.20;99.90
22185;DHT22;11258;52.516;13.318;2023-03-19T15:43:16;16.20;99.90
22185;DHT22;11258;52.516;13.318;2023-03-19T15:45:48;16.30;99.90
22185;DHT22;11258;52.516;13.318;2023-03-19T15:48:19;16.30;99.90
22185;DHT22;11258;52.516;13.318;2023-03-19T15:50:51;16.30;99.90
22185;DHT22;11258;52.516;13.318;2023-03-19T15:53:21;16.40;99.90
22185;DHT22;11258;52.516;13.318;2023-03-19T15:55:50;16.40;99.90
22185;DHT22;11258;52.516;13.318;2023-03-19T15:58:21;16.50;99.90
22185;DHT22;11258;52.516;13.318;2023-03-19T16:00:47;16.50;99.90
22185;DHT22;11258;52.516;13.318;2023-03-19T16:03:18;16.50;99.90
22185;DHT22;11258;52.516;13.318;2023-03-19T16:05:50;16.50;99.90
22185;DHT22;11258;52.516;13.318;2023-03-19T16:08:25;16.40;99.90
22185;DHT22;11258;52.516;13.318;2023-03-19T16:10:51;16.40;99.90
22185;DHT22;11258;52.516;13.318;2023-03-19T16:13:38;16.40;99.90
22185;DHT22;11258;52.516;13.318;2023-03-19T16:16:18;16.30;99.90
22185;DHT22;11258;52.516;13.318;2023-03-19T16:18:49;16.30;99.90
22185;DHT22;11258;52.516;13.318;2023-03-19T16:21:20;16.40;99.90
22185;DHT22;11258;52.516;13.318;2023-03-19T16:26:36;16.30;99.90
22185;DHT22;11258;52.516;13.318;2023-03-19T16:31:52;16.20;99.90
22185;DHT22;11258;52.516;13.318;2023-03-19T16:36:52;16.10;99.90
22185;DHT22;11258;52.516;13.318;2023-03-19T16:44:32;15.90;99.90
22185;DHT22;11258;52.516;13.318;2023-03-19T16:46:58;15.80;99.90
22185;DHT22;11258;52.516;13.318;2023-03-19T16:49:24;15.70;99.90
22185;DHT22;11258;52.516;13.318;2023-03-19T16:51:49;15.70;99.90
22185;DHT22;11258;52.516;13.318;2023-03-19T16:54:15;15.70;99.90
22185;DHT22;11258;52.516;13.318;2023-03-19T16:56:42;15.70;99.90
22185;DHT22;11258;52.516;13.318;2023-03-19T16:59:19;15.60;99.90
22185;DHT22;11258;52.516;13.318;2023-03-19T17:01:48;15.60;99.90
22185;DHT22;11258;52.516;13.318;2023-03-19T17:04:14;15.50;99.90
22185;DHT22;11258;52.516;13.318;2023-03-19T17:06:42;15.50;99.90
22185;DHT22;11258;52.516;13.318;2023-03-19T17:09:08;15.40;99.90
22185;DHT22;11258;52.516;13.318;2023-03-19T17:11:37;15.40;99.90
22185;DHT22;11258;52.516;13.318;2023-03-19T17:14:06;15.30;99.90
22185;DHT22;11258;52.516;13.318;2023-03-19T17:16:32;15.20;99.90